Time;durP1;ratioP1;P1;durP2;ratioP2;P2;SDS_P1;SDS_P2;PMS_P1;PMS_P2;Temp;Humidity;BMP_temperature;BMP_pressure;BME280_temperature;BME280_humidity;BME280_pressure;Samples;Min_cycle;Max_cycle;Signal;HPM_P1;HPM_P2
2023/08/01 00:00:05;;;;;;;19.63;10.25;;;;;;;19.04;81.94;98873.88;5066010;28;20044;-45
2023/08/01 00:02:43;;;;;;;20.77;10.63;;;;;;;18.96;83.03;98873.66;5062977;28;20080;-43
2023/08/01 00:05:10;;;;;;;16.80;9.15;;;;;;;18.96;83.63;98875.44;5049363;28;20047;-46
2023/08/01 00:07:36;;;;;;;20.60;8.20;;;;;;;18.97;83.03;98875.34;5053630;28;20059;-44
2023/08/01 00:10:03;;;;;;;18.30;9.07;;;;;;;18.96;82.68;98878.94;5067866;28;20097;-44
2023/08/01 00:12:33;;;;;;;17.85;9.52;;;;;;;18.94;83.36;98880.88;5066375;28;20036;-44
2023/08/01 00:14:59;;;;;;;23.52;9.43;;;;;;;18.91;83.89;98875.00;5031244;28;20093;-45
2023/08/01 00:17:25;;;;;;;16.40;8.65;;;;;;;18.89;83.97;98869.03;5060475;28;20036;-44
2023/08/01 00:19:51;;;;;;;20.30;9.43;;;;;;;18.88;83.50;98880.53;5068901;28;20127;-46
2023/08/01 00:22:17;;;;;;;15.25;7.45;;;;;;;18.84;83.64;98877.28;5051242;28;20052;-46
2023/08/01 00:24:43;;;;;;;13.73;7.25;;;;;;;18.72;83.14;98856.38;5068803;28;20067;-46
2023/08/01 00:27:10;;;;;;;12.38;6.78;;;;;;;18.87;82.65;98877.03;5066343;28;20508;-46
2023/08/01 00:29:36;;;;;;;16.52;7.22;;;;;;;18.75;81.99;98859.59;5066687;28;20039;-48
2023/08/01 00:32:03;;;;;;;15.70;8.93;;;;;;;18.83;81.86;98885.31;5066733;28;20048;-48
2023/08/01 00:34:29;;;;;;;17.17;8.73;;;;;;;18.76;82.91;98878.88;5050803;28;20036;-44
2023/08/01 00:36:55;;;;;;;20.38;9.13;;;;;;;18.70;83.77;98876.72;5067571;28;20525;-43
2023/08/01 00:39:21;;;;;;;19.13;9.18;;;;;;;18.66;84.60;98870.03;5066029;28;20040;-46
2023/08/01 00:41:47;;;;;;;22.73;10.50;;;;;;;18.48;85.13;98848.63;5067507;28;20037;-44
2023/08/01 00:44:13;;;;;;;16.38;8.43;;;;;;;18.57;85.31;98880.34;5049933;28;20534;-45
2023/08/01 00:46:39;;;;;;;21.17;9.48;;;;;;;18.52;85.82;98874.59;5067219;28;20036;-45
2023/08/01 00:49:08;;;;;;;17.35;9.27;;;;;;;18.49;86.63;98884.50;5067522;28;20087;-46
2023/08/01 00:51:34;;;;;;;21.30;9.07;;;;;;;18.44;87.19;98876.97;5065692;28;20072;-44
2023/08/01 00:54:01;;;;;;;17.40;9.07;;;;;;;18.41;87.70;98885.13;5059855;28;20041;-46
2023/08/01 00:56:26;;;;;;;19.08;9.05;;;;;;;18.38;87.95;98882.72;5052467;28;20505;-47
2023/08/01 00:58:52;;;;;;;18.10;9.45;;;;;;;18.33;88.50;98877.00;5048611;28;20487;-45
2023/08/01 01:01:18;;;;;;;18.83;9.07;;;;;;;18.29;88.96;98886.09;5066415;28;20048;-47
2023/08/01 01:03:44;;;;;;;19.48;9.27;;;;;;;18.25;89.17;98889.94;5048697;28;20063;-45
2023/08/01 01:06:23;;;;;;;27.00;10.13;;;;;;;17.92;89.64;98846.03;5065975;28;20070;-44
2023/08/01 01:08:49;;;;;;;17.75;9.50;;;;;;;18.16;89.85;98898.53;5049673;28;20089;-44
2023/08/01 01:11:15;;;;;;;22.77;10.15;;;;;;;17.94;89.97;98870.44;5067649;28;20144;-45
2023/08/01 01:13:41;;;;;;;16.70;9.43;;;;;;;17.93;90.42;98881.06;5066949;28;20049;-49
2023/08/01 01:16:09;;;;;;;22.00;9.82;;;;;;;18.03;90.71;98897.81;5052754;28;20049;-43
2023/08/01 01:18:35;;;;;;;18.27;9.25;;;;;;;18.01;91.03;98897.91;5069710;28;20045;-44
2023/08/01 01:21:01;;;;;;;19.88;9.52;;;;;;;17.96;91.42;98907.13;5070925;28;20063;-43
2023/08/01 01:23:27;;;;;;;25.85;10.05;;;;;;;17.96;91.88;98904.47;5072311;28;20424;-44
2023/08/01 01:25:54;;;;;;;14.95;9.43;;;;;;;17.94;92.30;98909.88;5069654;28;20051;-45
2023/08/01 01:28:20;;;;;;;19.98;9.75;;;;;;;17.94;92.60;98907.25;5053779;28;20063;-46
2023/08/01 01:30:48;;;;;;;22.88;10.45;;;;;;;17.91;92.71;98899.59;5046281;28;20509;-44
2023/08/01 01:33:14;;;;;;;16.83;9.45;;;;;;;17.94;93.06;98906.41;5062738;28;20051;-43
2023/08/01 01:35:40;;;;;;;25.00;10.95;;;;;;;17.92;93.44;98896.00;5069679;28;20048;-44
2023/08/01 01:38:08;;;;;;;21.42;9.65;;;;;;;17.90;93.72;98895.28;5071877;28;20040;-44
2023/08/01 01:40:34;;;;;;;22.73;10.60;;;;;;;17.93;93.89;98899.47;5070194;28;20055;-45
2023/08/01 01:43:00;;;;;;;18.90;9.93;;;;;;;17.94;94.23;98902.00;5055471;28;20091;-49
2023/08/01 01:45:27;;;;;;;16.77;9.93;;;;;;;17.95;94.35;98900.22;5070849;28;20198;-46
2023/08/01 01:47:53;;;;;;;18.95;10.73;;;;;;;17.95;94.49;98903.66;5069227;28;20040;-47
2023/08/01 01:50:19;;;;;;;21.48;10.45;;;;;;;17.91;94.75;98899.59;5070616;28;20048;-42
2023/08/01 01:52:46;;;;;;;21.25;10.25;;;;;;;17.86;94.80;98877.22;5070315;28;20044;-45
2023/08/01 01:55:12;;;;;;;23.98;11.18;;;;;;;18.01;94.90;98899.72;5071322;28;20420;-45
2023/08/01 01:57:40;;;;;;;26.10;11.80;;;;;;;18.04;94.56;98900.31;5069924;28;20037;-47
2023/08/01 02:00:13;;;;;;;24.15;12.50;;;;;;;18.02;94.50;98896.97;5052407;28;20041;-46
2023/08/01 02:02:40;;;;;;;23.83;11.65;;;;;;;17.98;94.43;98897.31;5068758;28;20302;-50
2023/08/01 02:05:06;;;;;;;23.35;11.02;;;;;;;17.83;94.31;98880.94;5052532;28;20420;-43
2023/08/01 02:07:33;;;;;;;23.02;11.52;;;;;;;17.86;94.61;98879.84;5086787;28;20127;-44
2023/08/01 02:10:01;;;;;;;26.70;11.93;;;;;;;18.01;94.81;98899.72;5064482;28;20037;-45
2023/08/01 02:12:35;;;;;;;22.35;11.32;;;;;;;18.01;94.97;98905.81;5054645;28;20052;-44
2023/08/01 02:15:04;;;;;;;20.23;11.35;;;;;;;18.03;94.75;98897.81;5033336;28;20041;-47
2023/08/01 02:17:33;;;;;;;24.63;11.75;;;;;;;18.07;94.86;98907.13;5050369;28;20041;-44
2023/08/01 02:20:20;;;;;;;22.35;11.77;;;;;;;18.07;94.57;98900.06;5035974;28;20045;-44
2023/08/01 02:22:46;;;;;;;25.85;12.18;;;;;;;18.07;94.71;98900.06;5049759;28;20072;-43
2023/08/01 02:25:12;;;;;;;23.58;11.70;;;;;;;18.10;94.76;98899.84;5037253;28;20569;-43
2023/08/01 02:27:39;;;;;;;24.45;12.45;;;;;;;18.15;94.69;98900.34;5068933;28;20066;-43
2023/08/01 02:30:06;;;;;;;32.13;11.40;;;;;;;18.21;94.25;98904.28;5069107;28;20033;-45
2023/08/01 02:32:36;;;;;;;22.13;11.55;;;;;;;18.26;93.93;98907.41;5070691;28;20470;-46
2023/08/01 02:35:03;;;;;;;26.17;11.18;;;;;;;18.29;93.89;98901.88;5048728;28;20186;-44
2023/08/01 02:37:33;;;;;;;23.20;12.32;;;;;;;18.34;93.55;98906.78;5049699;28;20052;-46
2023/08/01 02:40:02;;;;;;;23.98;12.73;;;;;;;18.35;93.32;98904.03;5052336;28;20220;-45
2023/08/01 02:42:31;;;;;;;25.42;12.90;;;;;;;18.38;93.24;98903.78;5068669;28;20055;-45
2023/08/01 02:44:56;;;;;;;30.42;12.15;;;;;;;18.41;92.95;98900.09;5085140;28;20037;-43
2023/08/01 02:47:22;;;;;;;25.40;11.65;;;;;;;18.27;92.67;98866.94;5070531;28;20044;-44
2023/08/01 02:49:48;;;;;;;22.23;11.80;;;;;;;18.47;92.14;98895.19;5067958;28;20057;-45
2023/08/01 02:52:14;;;;;;;24.00;11.93;;;;;;;18.52;91.86;98897.44;5068125;28;20443;-44
2023/08/01 02:54:40;;;;;;;21.48;11.32;;;;;;;18.56;91.48;98898.91;5070389;28;20650;-45
2023/08/01 02:57:06;;;;;;;27.83;12.55;;;;;;;18.58;91.71;98907.50;5084236;28;20059;-44
2023/08/01 02:59:33;;;;;;;26.58;12.45;;;;;;;18.61;91.75;98904.63;5068477;28;20122;-43
2023/08/01 03:01:59;;;;;;;20.02;10.90;;;;;;;18.63;92.00;98909.78;5067934;28;20131;-44
2023/08/01 03:04:25;;;;;;;20.33;11.27;;;;;;;18.63;92.06;98908.00;5051081;28;20055;-47
2023/08/01 03:06:51;;;;;;;27.75;11.52;;;;;;;18.68;92.19;98912.91;5057992;28;20534;-46
2023/08/01 03:09:17;;;;;;;27.42;11.13;;;;;;;18.73;92.10;98919.47;5068591;28;20048;-43
2023/08/01 03:11:44;;;;;;;28.98;12.40;;;;;;;18.79;91.83;98912.88;5050473;28;20043;-45
2023/08/01 03:14:10;;;;;;;23.92;12.25;;;;;;;18.70;91.32;98885.47;5067333;28;20037;-43
2023/08/01 03:16:37;;;;;;;24.75;11.30;;;;;;;18.77;90.49;98888.44;5050669;28;20470;-45
2023/08/01 03:19:04;;;;;;;24.98;12.13;;;;;;;18.92;90.33;98900.38;5067207;28;20039;-44
2023/08/01 03:21:34;;;;;;;33.00;13.93;;;;;;;19.04;89.61;98917.84;5068478;28;20032;-44
2023/08/01 03:24:02;;;;;;;26.77;12.57;;;;;;;19.10;88.69;98922.59;5068434;28;20052;-45
2023/08/01 03:26:29;;;;;;;28.80;11.07;;;;;;;19.01;88.19;98897.81;5054619;28;20041;-45
2023/08/01 03:28:56;;;;;;;23.48;10.50;;;;;;;19.22;88.10;98921.59;5049601;28;20047;-45
2023/08/01 03:31:23;;;;;;;27.95;11.40;;;;;;;19.27;87.92;98923.84;5048453;28;20043;-44
2023/08/01 03:33:49;;;;;;;24.42;12.48;;;;;;;19.14;87.84;98896.84;5051223;28;20127;-43
2023/08/01 03:36:15;;;;;;;24.63;12.30;;;;;;;19.32;87.73;98921.66;5066688;28;20071;-44
2023/08/01 03:38:41;;;;;;;21.65;11.05;;;;;;;19.41;87.78;98932.31;5066424;28;20040;-45
2023/08/01 03:41:07;;;;;;;22.08;11.55;;;;;;;19.46;87.52;98937.25;5068189;28;20520;-43
2023/08/01 03:43:33;;;;;;;23.98;12.15;;;;;;;19.53;87.33;98933.09;5050745;28;20052;-43
2023/08/01 03:46:00;;;;;;;24.85;12.50;;;;;;;19.58;86.77;98930.94;5068163;28;20504;-44
2023/08/01 03:48:26;;;;;;;26.10;11.50;;;;;;;19.54;86.17;98911.06;5068265;28;20123;-43
2023/08/01 03:50:51;;;;;;;28.73;11.68;;;;;;;19.74;84.65;98933.13;5047013;28;20149;-51
2023/08/01 03:53:18;;;;;;;17.60;11.00;;;;;;;19.81;83.63;98943.03;5048199;28;20044;-44
2023/08/01 03:55:44;;;;;;;18.88;11.05;;;;;;;19.89;82.45;98937.09;5047082;28;20037;-45
2023/08/01 03:58:10;;;;;;;20.27;10.63;;;;;;;19.94;81.37;98937.53;5031565;28;20049;-44
2023/08/01 04:00:37;;;;;;;19.15;10.07;;;;;;;20.00;80.68;98942.31;5078087;28;20512;-43
2023/08/01 04:03:03;;;;;;;17.95;10.55;;;;;;;20.09;79.79;98946.84;5067785;28;20165;-46
2023/08/01 04:05:29;;;;;;;14.15;9.27;;;;;;;20.16;79.08;98955.03;5068180;28;20040;-44
2023/08/01 04:07:55;;;;;;;17.52;8.98;;;;;;;20.12;77.89;98937.81;5067789;28;20155;-50
2023/08/01 04:10:22;;;;;;;20.23;10.48;;;;;;;20.29;77.24;98953.88;5068286;28;20040;-44
2023/08/01 04:12:48;;;;;;;23.65;10.77;;;;;;;20.36;76.79;98954.19;5069217;28;20044;-45
2023/08/01 04:15:14;;;;;;;17.05;10.77;;;;;;;20.36;76.40;98943.63;5067966;28;20037;-48
2023/08/01 04:17:41;;;;;;;20.48;10.15;;;;;;;20.49;76.12;98965.38;5084695;28;20055;-45
2023/08/01 04:20:07;;;;;;;19.27;10.30;;;;;;;20.54;75.69;98957.06;5049900;28;20036;-49
2023/08/01 04:22:33;;;;;;;19.02;10.68;;;;;;;20.43;75.49;98923.66;5066895;28;20420;-44
2023/08/01 04:25:02;;;;;;;16.67;9.10;;;;;;;20.65;75.43;98943.75;5049807;28;20052;-43
2023/08/01 04:27:33;;;;;;;20.25;9.60;;;;;;;20.75;74.95;98959.63;5068958;28;20504;-45
2023/08/01 04:30:00;;;;;;;23.83;12.05;;;;;;;20.80;74.64;98960.91;5050947;28;20083;-45
2023/08/01 04:32:29;;;;;;;22.08;9.85;;;;;;;20.89;74.44;98959.25;5050582;28;20106;-42
2023/08/01 04:34:55;;;;;;;22.10;9.80;;;;;;;20.94;74.40;98957.03;5068496;28;20037;-47
2023/08/01 04:37:22;;;;;;;19.55;10.15;;;;;;;21.00;74.26;98957.34;5065014;28;20504;-45
2023/08/01 04:39:48;;;;;;;17.67;7.75;;;;;;;21.06;74.02;98958.59;5066695;28;20040;-46
2023/08/01 04:42:14;;;;;;;16.83;7.03;;;;;;;21.13;72.52;98952.66;5055633;28;20036;-49
2023/08/01 04:44:40;;;;;;;10.25;6.30;;;;;;;21.18;71.57;98948.78;5047680;28;20048;-44
2023/08/01 04:47:06;;;;;;;8.95;5.40;;;;;;;21.22;70.76;98958.94;5048720;28;20037;-47
2023/08/01 04:49:32;;;;;;;11.65;5.68;;;;;;;21.32;70.42;98964.22;5048989;28;20063;-44
2023/08/01 04:51:58;;;;;;;11.15;4.63;;;;;;;21.40;69.79;98956.47;5068033;28;20055;-45
2023/08/01 04:54:24;;;;;;;9.68;5.25;;;;;;;21.44;69.52;98952.56;5072327;28;20051;-46
2023/08/01 04:56:50;;;;;;;9.27;4.90;;;;;;;21.52;69.23;98958.81;5070140;28;20108;-49
2023/08/01 04:59:16;;;;;;;12.55;5.18;;;;;;;21.58;68.79;98959.22;5072590;28;20041;-44
2023/08/01 05:01:42;;;;;;;12.75;5.60;;;;;;;21.61;68.50;98946.59;5071115;28;20157;-46
2023/08/01 05:04:08;;;;;;;13.10;5.97;;;;;;;21.72;68.25;98962.28;5053703;28;20461;-46
2023/08/01 05:06:34;;;;;;;13.18;5.28;;;;;;;21.64;68.52;98930.41;5064291;28;20276;-45
2023/08/01 05:09:00;;;;;;;12.75;5.80;;;;;;;21.83;68.20;98959.50;5072510;28;20051;-45
2023/08/01 05:11:26;;;;;;;9.73;5.30;;;;;;;21.94;68.15;98964.66;5070491;28;20037;-44
2023/08/01 05:13:52;;;;;;;10.90;4.60;;;;;;;22.03;67.99;98955.06;5053423;28;20036;-44
2023/08/01 05:16:18;;;;;;;14.40;5.32;;;;;;;22.13;67.41;98965.63;5052261;28;20041;-48
2023/08/01 05:18:44;;;;;;;8.88;5.05;;;;;;;22.18;67.34;98958.91;5064820;28;20036;-44
2023/08/01 05:21:10;;;;;;;5.85;4.38;;;;;;;22.25;66.88;98962.63;5069970;28;20045;-44
2023/08/01 05:23:36;;;;;;;9.77;4.82;;;;;;;22.34;66.33;98964.44;5072079;28;20040;-44
2023/08/01 05:26:02;;;;;;;10.73;4.60;;;;;;;22.43;65.46;98972.50;5069594;28;20500;-44
2023/08/01 05:28:28;;;;;;;7.85;4.72;;;;;;;22.49;64.96;98964.81;5070731;28;20587;-45
2023/08/01 05:30:54;;;;;;;7.07;4.90;;;;;;;22.65;64.42;98969.47;5070137;28;20068;-44
2023/08/01 05:33:20;;;;;;;6.57;4.30;;;;;;;22.71;63.39;98969.75;5052360;28;20082;-44
2023/08/01 05:35:47;;;;;;;9.35;4.40;;;;;;;22.82;63.08;98974.00;5069587;28;20060;-44
2023/08/01 05:38:14;;;;;;;8.32;4.32;;;;;;;22.94;62.79;98974.66;5070807;28;20043;-45
2023/08/01 05:40:39;;;;;;;6.57;3.95;;;;;;;23.04;62.50;98972.78;5071335;28;20040;-44
2023/08/01 05:43:08;;;;;;;8.00;4.20;;;;;;;22.99;62.16;98941.41;5067610;28;20040;-47
2023/08/01 05:45:35;;;;;;;6.70;3.65;;;;;;;23.28;61.66;98969.56;5069317;28;20045;-44
2023/08/01 05:48:02;;;;;;;6.55;4.18;;;;;;;23.40;61.20;98977.13;5055605;28;20040;-46
2023/08/01 05:50:28;;;;;;;11.23;4.45;;;;;;;23.52;60.65;98981.28;5071313;28;20504;-46
2023/08/01 05:52:54;;;;;;;8.57;4.60;;;;;;;23.66;60.28;98976.44;5075463;28;20098;-46
2023/08/01 05:55:20;;;;;;;11.35;5.47;;;;;;;23.73;59.77;98983.63;5072275;28;20045;-45
2023/08/01 05:57:48;;;;;;;7.97;4.53;;;;;;;23.65;59.27;98946.41;5070937;28;20462;-44
2023/08/01 06:00:15;;;;;;;5.93;4.67;;;;;;;23.96;58.79;98984.81;5067632;28;20053;-43
2023/08/01 06:02:41;;;;;;;8.25;4.43;;;;;;;23.93;58.31;98955.91;5069600;28;20318;-43
2023/08/01 06:05:08;;;;;;;7.90;4.30;;;;;;;24.10;57.05;98978.09;5068616;28;20079;-44
2023/08/01 06:07:34;;;;;;;9.07;4.15;;;;;;;24.21;56.70;98974.38;5069029;28;20041;-48
2023/08/01 06:10:00;;;;;;;7.00;4.13;;;;;;;24.25;55.98;98981.88;5069543;28;20045;-45
2023/08/01 06:12:26;;;;;;;6.30;3.70;;;;;;;24.31;55.25;98980.44;5069062;28;20508;-48
2023/08/01 06:14:52;;;;;;;6.90;3.45;;;;;;;24.23;55.22;98949.34;5070589;28;20067;-44
2023/08/01 06:17:18;;;;;;;7.45;3.50;;;;;;;24.46;54.56;98968.22;5069877;28;20044;-46
2023/08/01 06:19:44;;;;;;;6.15;3.65;;;;;;;24.84;54.35;98985.53;5065379;28;20125;-46
2023/08/01 06:22:10;;;;;;;7.63;3.67;;;;;;;24.98;53.49;98979.63;5067534;28;20504;-46
2023/08/01 06:24:37;;;;;;;6.03;3.65;;;;;;;25.22;53.48;98985.03;5064908;28;20131;-47
2023/08/01 06:27:03;;;;;;;6.75;3.65;;;;;;;25.40;52.71;98987.53;5071185;28;20092;-46
2023/08/01 06:29:29;;;;;;;4.60;3.90;;;;;;;25.50;52.03;98960.75;5068743;28;20040;-46
2023/08/01 06:31:55;;;;;;;6.40;3.88;;;;;;;26.02;51.52;98985.28;5068925;28;20063;-46
2023/08/01 06:34:21;;;;;;;7.78;4.13;;;;;;;26.56;50.50;98983.72;5068651;28;20055;-46
2023/08/01 06:36:48;;;;;;;7.78;4.25;;;;;;;27.28;49.24;98981.75;5068936;28;20512;-47
2023/08/01 06:39:14;;;;;;;6.75;4.03;;;;;;;28.19;48.10;98985.28;5070678;28;20555;-48
2023/08/01 06:41:40;;;;;;;5.75;3.00;;;;;;;29.05;45.71;98992.66;5070309;28;20040;-47
2023/08/01 06:44:06;;;;;;;6.07;3.00;;;;;;;29.45;43.20;98975.25;5070073;28;20093;-44
2023/08/01 06:46:32;;;;;;;6.60;3.22;;;;;;;30.11;41.40;98983.91;5073603;28;20122;-44
2023/08/01 06:48:58;;;;;;;4.68;3.00;;;;;;;31.16;40.11;98986.41;5064043;28;20036;-45
2023/08/01 06:51:24;;;;;;;6.18;2.70;;;;;;;32.39;38.28;98994.06;5065610;28;20417;-44
2023/08/01 06:53:50;;;;;;;7.07;3.22;;;;;;;32.22;36.72;98984.75;5029104;28;20082;-43
2023/08/01 06:56:16;;;;;;;3.75;2.50;;;;;;;31.88;36.49;98991.13;5061929;28;20037;-44
2023/08/01 06:58:42;;;;;;;3.45;2.95;;;;;;;31.46;36.20;98993.13;5073897;28;20045;-45
2023/08/01 07:01:08;;;;;;;5.10;2.85;;;;;;;32.55;35.05;98993.63;5068413;28;20429;-45
2023/08/01 07:03:34;;;;;;;5.38;2.92;;;;;;;33.43;33.23;98975.09;5065533;28;20036;-45
2023/08/01 07:06:00;;;;;;;4.85;3.15;;;;;;;34.73;32.14;99002.06;5069448;28;20036;-44
2023/08/01 07:08:26;;;;;;;4.80;2.97;;;;;;;35.39;30.94;98992.34;5067419;28;20067;-45
2023/08/01 07:10:52;;;;;;;6.15;2.97;;;;;;;35.84;29.56;98969.22;5069447;28;20131;-46
2023/08/01 07:13:19;;;;;;;4.45;2.97;;;;;;;36.57;28.89;98982.34;5068959;28;20557;-45
2023/08/01 07:15:46;;;;;;;4.80;3.22;;;;;;;36.65;28.25;99000.94;5051504;28;20044;-45
2023/08/01 07:18:14;;;;;;;3.72;2.95;;;;;;;37.52;26.87;98995.41;5068379;28;20131;-46
2023/08/01 07:20:40;;;;;;;5.38;2.85;;;;;;;38.61;26.28;98996.72;5064099;28;20062;-44
2023/08/01 07:23:06;;;;;;;3.97;3.03;;;;;;;39.62;25.18;98997.97;5066053;28;20613;-45
2023/08/01 07:25:32;;;;;;;4.22;3.00;;;;;;;39.99;23.87;98995.31;5068940;28;20041;-44
2023/08/01 07:27:58;;;;;;;2.95;2.65;;;;;;;40.28;23.71;98995.84;5069270;28;20032;-44
2023/08/01 07:30:24;;;;;;;3.30;3.00;;;;;;;40.55;23.25;98984.84;5052896;28;20055;-48
2023/08/01 07:32:50;;;;;;;5.95;3.15;;;;;;;40.72;23.13;98995.59;5071075;28;20143;-43
2023/08/01 07:35:16;;;;;;;3.40;2.90;;;;;;;41.56;22.20;98998.13;5069646;28;20412;-44
2023/08/01 07:37:42;;;;;;;4.93;3.30;;;;;;;41.78;21.80;98996.75;5065908;28;20051;-43
2023/08/01 07:40:09;;;;;;;3.92;3.13;;;;;;;42.85;21.37;98994.75;5067637;28;20052;-45
2023/08/01 07:42:35;;;;;;;4.97;4.47;;;;;;;43.27;20.68;99002.53;5066979;28;20164;-45
2023/08/01 07:45:01;;;;;;;4.15;3.25;;;;;;;43.22;20.28;98999.00;5067394;28;20128;-51
2023/08/01 07:47:30;;;;;;;4.85;3.25;;;;;;;43.09;19.85;98994.94;5068895;28;20571;-43
2023/08/01 07:49:56;;;;;;;3.60;2.72;;;;;;;42.64;20.29;98996.72;5068875;28;20040;-42
2023/08/01 07:52:22;;;;;;;3.05;2.38;;;;;;;39.95;22.34;98987.94;5069041;28;20460;-50
2023/08/01 07:54:48;;;;;;;4.25;3.10;;;;;;;38.54;23.65;98986.03;5067124;28;20043;-45
2023/08/01 07:57:14;;;;;;;4.57;3.10;;;;;;;39.96;22.75;98981.41;5063239;28;20428;-42
2023/08/01 07:59:40;;;;;;;5.03;2.97;;;;;;;40.60;21.62;98979.41;5049213;28;20082;-44
2023/08/01 08:02:06;;;;;;;3.75;2.80;;;;;;;41.48;21.07;98985.00;5064646;28;20500;-44
2023/08/01 08:04:32;;;;;;;4.18;2.88;;;;;;;41.09;21.31;98976.44;5065733;28;20036;-45
2023/08/01 08:06:59;;;;;;;3.92;2.70;;;;;;;40.69;21.27;98975.13;5068117;28;20064;-48
2023/08/01 08:09:27;;;;;;;3.13;2.50;;;;;;;37.21;24.58;98977.75;5064327;28;20051;-47
2023/08/01 08:11:53;;;;;;;4.22;2.85;;;;;;;35.49;26.42;98947.47;5068620;28;20044;-45
2023/08/01 08:14:21;;;;;;;3.67;3.03;;;;;;;36.06;26.20;98942.44;5061612;28;20101;-46
2023/08/01 08:16:48;;;;;;;4.20;2.70;;;;;;;37.27;24.93;98952.38;5067172;28;20086;-46
2023/08/01 08:19:14;;;;;;;4.78;2.80;;;;;;;38.76;23.70;98969.75;5058830;28;20072;-45
2023/08/01 08:21:41;;;;;;;4.45;3.10;;;;;;;40.54;22.41;98964.13;5068517;28;20567;-49
2023/08/01 08:24:07;;;;;;;3.42;2.75;;;;;;;40.37;22.63;98945.22;5068752;28;20074;-45
2023/08/01 08:26:37;;;;;;;5.40;3.38;;;;;;;40.57;22.63;98948.06;5067556;28;20044;-46
2023/08/01 08:29:07;;;;;;;5.78;3.30;;;;;;;41.83;22.17;98974.91;5069038;28;20119;-46
2023/08/01 08:31:33;;;;;;;6.78;3.38;;;;;;;43.01;20.70;98979.09;5071940;28;20851;-48
2023/08/01 08:33:59;;;;;;;4.80;3.15;;;;;;;43.37;20.01;98982.47;5064483;28;20087;-50
2023/08/01 08:36:26;;;;;;;5.53;3.67;;;;;;;42.75;20.00;98956.53;5069962;28;20045;-48
2023/08/01 08:38:52;;;;;;;6.15;4.05;;;;;;;42.26;20.08;98973.53;5074326;28;20040;-49
2023/08/01 08:41:25;;;;;;;4.93;3.45;;;;;;;42.21;20.23;98961.81;5056356;28;20040;-47
2023/08/01 08:43:55;;;;;;;4.20;3.80;;;;;;;43.60;19.59;98959.09;5035869;28;20147;-45
2023/08/01 08:46:23;;;;;;;5.65;3.90;;;;;;;44.12;19.11;98959.22;5057042;28;20047;-45
2023/08/01 08:48:50;;;;;;;3.65;3.28;;;;;;;44.44;18.95;98966.03;5060830;28;20547;-43
2023/08/01 08:51:16;;;;;;;10.00;3.88;;;;;;;44.24;18.92;98964.28;5064265;28;20056;-46
2023/08/01 08:53:42;;;;;;;7.47;3.77;;;;;;;44.26;18.53;98951.97;5070633;28;20046;-46
2023/08/01 08:56:09;;;;;;;7.28;3.90;;;;;;;44.63;19.06;98962.22;5073301;28;20044;-45
2023/08/01 08:58:37;;;;;;;;;;;;;;;44.93;18.61;98957.50;5074742;28;20547;-46
2023/08/01 09:01:04;;;;;;;8.60;3.88;;;;;;;45.40;18.50;98962.88;5055856;28;19908;-46
2023/08/01 09:03:30;;;;;;;7.90;4.53;;;;;;;46.06;18.27;98970.09;5053810;28;20037;-46
2023/08/01 09:06:30;;;;;;;5.30;3.97;;;;;;;46.65;17.98;98969.28;5070575;28;20093;-45
2023/08/01 09:09:01;;;;;;;5.97;4.18;;;;;;;46.69;16.77;98970.28;5047519;28;20048;-45
2023/08/01 09:11:27;;;;;;;4.70;4.20;;;;;;;46.60;16.88;98963.88;5074738;28;20099;-45
2023/08/01 09:13:53;;;;;;;8.25;4.68;;;;;;;46.85;16.71;98967.25;5067855;28;20532;-46
2023/08/01 09:16:19;;;;;;;4.30;3.90;;;;;;;46.89;16.25;98969.06;5066139;28;20044;-44
2023/08/01 09:18:52;;;;;;;6.40;3.73;;;;;;;47.09;16.04;98956.81;5064358;28;20101;-44
2023/08/01 09:21:19;;;;;;;4.18;3.80;;;;;;;46.64;15.97;98955.84;5071429;28;20047;-46
2023/08/01 09:23:45;;;;;;;4.60;3.90;;;;;;;46.35;16.23;98948.69;5074284;28;20043;-45
2023/08/01 09:26:19;;;;;;;6.75;3.53;;;;;;;46.41;16.37;98949.38;5072326;28;20516;-47
2023/08/01 09:28:58;;;;;;;5.68;4.03;;;;;;;46.96;16.68;98936.44;5080070;28;20041;-45
2023/08/01 09:31:30;;;;;;;3.97;3.67;;;;;;;47.77;16.46;98947.53;5065206;28;20445;-46
2023/08/01 09:33:57;;;;;;;6.85;3.83;;;;;;;48.00;15.71;98949.97;5079985;28;20037;-47
2023/08/01 09:36:23;;;;;;;9.73;4.47;;;;;;;46.93;15.93;98939.00;5044882;28;20060;-48
2023/08/01 09:38:49;;;;;;;5.00;3.20;;;;;;;45.02;17.58;98936.50;5071308;28;20040;-48
2023/08/01 09:41:19;;;;;;;4.28;2.97;;;;;;;42.99;19.47;98932.88;5069430;28;20036;-49
2023/08/01 09:43:47;;;;;;;6.80;3.40;;;;;;;41.53;21.00;98930.41;5068735;28;20045;-49
2023/08/01 09:46:13;;;;;;;5.20;3.38;;;;;;;40.48;21.96;98916.94;5050021;28;20045;-45
2023/08/01 09:48:40;;;;;;;6.18;2.75;;;;;;;39.41;21.86;98898.19;5069225;28;20090;-46
2023/08/01 09:51:14;;;;;;;5.10;3.28;;;;;;;38.39;23.38;98912.44;5065987;28;20052;-43
2023/08/01 09:53:54;;;;;;;6.63;3.08;;;;;;;36.71;24.96;98916.00;5053314;28;20504;-44
2023/08/01 09:56:21;;;;;;;4.65;3.20;;;;;;;35.65;26.36;98906.22;5066612;28;20068;-46
2023/08/01 09:58:49;;;;;;;7.55;3.30;;;;;;;37.53;25.09;98913.78;5051460;28;20031;-49
2023/08/01 10:01:16;;;;;;;4.72;3.30;;;;;;;37.69;24.58;98895.88;5054519;28;20049;-48
2023/08/01 10:03:47;;;;;;;4.20;3.25;;;;;;;40.16;22.47;98922.47;5057307;28;20096;-46
2023/08/01 10:06:18;;;;;;;4.00;3.55;;;;;;;41.34;21.06;98919.19;5056820;28;20040;-51
2023/08/01 10:08:45;;;;;;;4.78;3.10;;;;;;;39.82;22.09;98906.72;5070376;28;20127;-49
2023/08/01 10:11:14;;;;;;;3.90;2.78;;;;;;;37.53;24.89;98911.06;5069214;28;20067;-52
2023/08/01 10:13:42;;;;;;;5.10;2.90;;;;;;;35.85;26.40;98900.53;5065853;28;20040;-47
2023/08/01 10:16:08;;;;;;;3.55;3.00;;;;;;;34.61;27.93;98901.22;5068405;28;20117;-49
2023/08/01 10:18:37;;;;;;;6.72;3.30;;;;;;;33.86;28.95;98908.63;5045303;28;20036;-48
2023/08/01 10:21:07;;;;;;;5.63;3.00;;;;;;;33.24;29.70;98909.47;5044469;28;20056;-47
2023/08/01 10:23:34;;;;;;;6.82;3.40;;;;;;;33.83;29.10;98890.19;5068747;28;20072;-51
2023/08/01 10:26:01;;;;;;;3.92;3.60;;;;;;;35.79;27.20;98903.34;5069837;28;20029;-50
2023/08/01 10:28:37;;;;;;;7.18;3.30;;;;;;;36.84;26.28;98894.06;5069613;28;20048;-47
2023/08/01 10:31:10;;;;;;;3.30;2.92;;;;;;;36.40;26.89;98908.28;5070735;28;20508;-49
2023/08/01 10:33:38;;;;;;;6.45;3.47;;;;;;;35.60;27.78;98906.09;5068005;28;20032;-47
2023/08/01 10:36:22;;;;;;;;;;;;;;;34.92;27.95;98900.22;5035961;28;20127;-47
2023/08/01 10:38:52;;;;;;;6.28;3.10;;;;;;;34.15;28.86;98890.91;5060338;28;19920;-48
2023/08/01 10:41:37;;;;;;;7.53;3.08;;;;;;;33.60;29.72;98889.94;5050055;28;20032;-46
2023/08/01 10:44:12;;;;;;;10.75;3.80;;;;;;;33.31;30.84;98888.69;5065920;28;20172;-48
2023/08/01 10:46:58;;;;;;;6.95;3.40;;;;;;;33.32;31.49;98886.84;5062145;28;20036;-46
2023/08/01 10:49:39;;;;;;;6.82;3.25;;;;;;;33.31;30.97;98891.41;5067781;28;20070;-48
2023/08/01 10:52:27;;;;;;;4.07;3.58;;;;;;;34.55;30.79;98888.59;5064819;28;20558;-53
2023/08/01 10:55:01;;;;;;;6.22;3.40;;;;;;;35.13;30.30;98885.38;5066222;28;20060;-47
2023/08/01 10:57:31;;;;;;;4.65;3.13;;;;;;;34.70;30.59;98886.38;5068322;28;20428;-48
2023/08/01 10:59:58;;;;;;;6.95;3.15;;;;;;;34.39;31.56;98884.63;5065595;28;20123;-49
2023/08/01 11:02:28;;;;;;;6.82;3.20;;;;;;;35.49;29.49;98890.66;5063372;28;20044;-46
2023/08/01 11:05:04;;;;;;;5.28;3.58;;;;;;;38.12;25.77;98901.47;5083852;28;20077;-53
2023/08/01 11:07:32;;;;;;;;;;;;;;;39.44;24.19;98894.13;5067196;28;20048;-47
2023/08/01 11:10:13;;;;;;;7.00;3.88;;;;;;;39.93;22.73;98865.69;5045377;28;20452;-46
2023/08/01 11:12:42;;;;;;;7.90;3.60;;;;;;;40.53;22.13;98897.06;5068180;28;20659;-47
2023/08/01 11:15:10;;;;;;;4.07;3.67;;;;;;;41.03;21.76;98867.28;5062901;28;20037;-49
2023/08/01 11:17:48;;;;;;;5.57;3.70;;;;;;;41.10;22.02;98904.38;5062836;28;20041;-49
2023/08/01 11:20:14;;;;;;;6.95;3.65;;;;;;;40.86;21.93;98904.03;5066890;28;20047;-46
2023/08/01 11:23:04;;;;;;;4.40;3.70;;;;;;;41.17;20.74;98897.59;5065529;28;20059;-48
2023/08/01 11:25:45;;;;;;;5.97;3.40;;;;;;;42.12;20.48;98900.63;5067029;28;20602;-48
2023/08/01 11:28:16;;;;;;;5.30;3.67;;;;;;;42.57;20.13;98896.94;5066769;28;20094;-48
2023/08/01 11:30:43;;;;;;;4.38;3.90;;;;;;;43.48;19.25;98886.34;5049582;28;20040;-46